Time;durP1;ratioP1;P1;durP2;ratioP2;P2;SDS_P1;SDS_P2;PMS_P1;PMS_P2;Temp;Humidity;BMP_temperature;BMP_pressure;BME280_temperature;BME280_humidity;BME280_pressure;Samples;Min_cycle;Max_cycle;Signal;HPM_P1;HPM_P2
2021/05/04 00:01:32;;;;;;;2.47;1.65;;;;;;;12.42;36.54;96662.28;5030106;28;20403;-76
2021/05/04 00:03:58;;;;;;;2.42;1.55;;;;;;;12.59;36.70;96642.91;5011705;28;20033;-77
2021/05/04 00:06:23;;;;;;;2.03;1.17;;;;;;;12.56;36.71;96641.63;5011829;28;20071;-75
2021/05/04 00:08:48;;;;;;;2.17;1.60;;;;;;;12.63;36.60;96636.88;5028093;28;20397;-76
2021/05/04 00:11:14;;;;;;;3.10;2.03;;;;;;;12.49;37.48;96622.84;5027196;28;20163;-76
2021/05/04 00:13:39;;;;;;;2.75;1.60;;;;;;;12.45;37.05;96625.22;5011500;28;20033;-76
2021/05/04 00:16:04;;;;;;;2.63;1.92;;;;;;;12.19;37.61;96621.94;5011339;28;20025;-76
2021/05/04 00:18:30;;;;;;;2.42;1.80;;;;;;;12.29;37.47;96621.13;5028340;28;20035;-76
2021/05/04 00:20:56;;;;;;;2.58;1.60;;;;;;;12.50;37.24;96613.97;5019115;28;20080;-77
2021/05/04 00:23:21;;;;;;;3.35;1.83;;;;;;;12.31;36.96;96598.13;5029431;28;20040;-76
2021/05/04 00:25:46;;;;;;;3.17;1.67;;;;;;;12.55;37.12;96600.88;5027976;28;20477;-76
2021/05/04 00:28:12;;;;;;;1.80;1.60;;;;;;;12.51;37.20;96587.59;5027899;28;20026;-76
2021/05/04 00:30:37;;;;;;;3.05;1.70;;;;;;;12.48;36.91;96584.72;5040449;28;20044;-76
2021/05/04 00:33:03;;;;;;;2.30;1.58;;;;;;;12.22;37.55;96579.66;5027717;28;20022;-76
2021/05/04 00:35:28;;;;;;;2.85;1.75;;;;;;;12.28;37.70;96569.97;5028831;28;20035;-76
2021/05/04 00:37:53;;;;;;;3.85;1.73;;;;;;;12.26;37.49;96569.47;5027602;28;20056;-76
2021/05/04 00:40:20;;;;;;;2.72;1.58;;;;;;;12.25;37.79;96562.66;5027341;28;20033;-77
2021/05/04 00:42:46;;;;;;;2.42;1.63;;;;;;;12.11;38.17;96559.88;5044040;28;20037;-76
2021/05/04 00:45:12;;;;;;;2.80;1.67;;;;;;;12.15;38.22;96559.06;5027539;28;20656;-75
2021/05/04 00:47:37;;;;;;;2.20;1.60;;;;;;;12.00;38.32;96548.72;5027460;28;20056;-76
2021/05/04 00:50:04;;;;;;;2.45;1.75;;;;;;;12.21;38.15;96540.78;5043567;28;20662;-76
2021/05/04 00:52:31;;;;;;;2.60;1.45;;;;;;;12.17;38.22;96550.97;5011170;28;20033;-76
2021/05/04 00:54:57;;;;;;;4.95;1.77;;;;;;;12.16;38.33;96547.56;5028736;28;20029;-76
2021/05/04 00:57:23;;;;;;;3.58;1.50;;;;;;;12.15;38.49;96547.84;5027192;28;20087;-76
2021/05/04 00:59:49;;;;;;;1.80;1.25;;;;;;;12.27;38.35;96545.69;5022264;28;20487;-75
2021/05/04 01:02:15;;;;;;;3.17;1.63;;;;;;;12.05;38.41;96533.03;5024030;28;20140;-76
2021/05/04 01:04:41;;;;;;;2.58;1.52;;;;;;;12.15;38.58;96532.97;5041880;28;20041;-76
2021/05/04 01:07:06;;;;;;;2.75;1.65;;;;;;;12.09;38.99;96523.59;5010457;28;20044;-77
2021/05/04 01:09:32;;;;;;;3.53;1.42;;;;;;;12.01;39.44;96526.00;5027883;28;20367;-76
2021/05/04 01:11:57;;;;;;;5.70;1.38;;;;;;;12.22;38.79;96518.81;5043354;28;20026;-77
2021/05/04 01:14:23;;;;;;;2.72;1.80;;;;;;;12.13;39.02;96519.41;5044148;28;20036;-77
2021/05/04 01:16:49;;;;;;;2.88;1.60;;;;;;;12.20;39.07;96518.31;5027204;28;20052;-76
2021/05/04 01:19:16;;;;;;;2.47;1.48;;;;;;;12.11;39.18;96505.84;5043835;28;20037;-76
2021/05/04 01:21:42;;;;;;;2.15;1.92;;;;;;;12.15;38.87;96504.25;5010414;28;20044;-77
2021/05/04 01:24:08;;;;;;;2.75;1.70;;;;;;;12.27;38.99;96495.31;5043666;28;20079;-76
2021/05/04 01:26:34;;;;;;;1.85;1.40;;;;;;;11.93;39.67;96493.44;5026856;28;20037;-77
2021/05/04 01:28:59;;;;;;;3.17;1.70;;;;;;;12.20;38.99;96492.22;5027002;28;20443;-76
2021/05/04 01:31:24;;;;;;;2.63;1.77;;;;;;;12.18;39.24;96474.22;5033346;28;20033;-76
2021/05/04 01:33:50;;;;;;;2.72;1.77;;;;;;;12.09;39.50;96471.41;5027655;28;20030;-77
2021/05/04 01:36:16;;;;;;;2.33;1.70;;;;;;;12.23;39.63;96470.81;5043765;28;20037;-76
2021/05/04 01:38:41;;;;;;;3.17;1.80;;;;;;;12.29;39.36;96469.72;5027300;28;20071;-76
2021/05/04 01:41:07;;;;;;;2.22;1.27;;;;;;;12.36;39.60;96464.97;5039878;28;20029;-76
2021/05/04 01:43:32;;;;;;;2.42;1.50;;;;;;;12.08;39.64;96453.41;5026852;28;20048;-76
2021/05/04 01:45:57;;;;;;;2.75;1.70;;;;;;;11.90;40.24;96454.81;5026679;28;20037;-76
2021/05/04 01:48:23;;;;;;;2.42;1.88;;;;;;;12.20;39.49;96438.22;5026927;28;20029;-76
2021/05/04 01:50:48;;;;;;;3.03;2.00;;;;;;;12.18;39.68;96437.69;5027710;28;20029;-76
2021/05/04 01:53:13;;;;;;;2.38;1.70;;;;;;;12.14;40.19;96434.06;5047446;28;20037;-76
2021/05/04 01:55:39;;;;;;;2.53;2.05;;;;;;;12.32;39.60;96433.41;5015076;28;20040;-76
2021/05/04 01:58:04;;;;;;;2.15;1.70;;;;;;;12.49;39.19;96425.19;5014137;28;20057;-75
2021/05/04 02:00:30;;;;;;;2.20;1.63;;;;;;;12.43;39.43;96434.09;5030374;28;20052;-77
2021/05/04 02:02:55;;;;;;;3.05;1.70;;;;;;;12.20;40.19;96412.13;5030641;28;20084;-76
2021/05/04 02:05:21;;;;;;;2.85;1.48;;;;;;;12.31;39.93;96416.19;5030685;28;20061;-76
2021/05/04 02:07:46;;;;;;;2.83;1.70;;;;;;;12.41;39.85;96427.63;5030076;28;20068;-77
2021/05/04 02:10:12;;;;;;;3.15;1.88;;;;;;;12.33;39.98;96415.91;5030269;28;20037;-76
2021/05/04 02:12:41;;;;;;;3.08;1.77;;;;;;;12.26;39.98;96418.84;5030450;28;20041;-77
2021/05/04 02:15:08;;;;;;;3.25;1.70;;;;;;;12.46;39.73;96394.41;5030608;28;20489;-76
2021/05/04 02:17:33;;;;;;;2.70;1.88;;;;;;;12.61;39.79;96409.16;5013680;28;20037;-76
2021/05/04 02:19:59;;;;;;;3.58;2.20;;;;;;;12.30;40.94;96390.34;5046656;28;20060;-76
2021/05/04 02:22:24;;;;;;;3.75;2.10;;;;;;;12.38;40.29;96392.38;5030563;28;20111;-76
2021/05/04 02:24:49;;;;;;;3.45;2.10;;;;;;;12.46;40.80;96391.03;5029863;28;20091;-76
2021/05/04 02:27:15;;;;;;;2.45;1.75;;;;;;;12.39;40.48;96380.91;5030292;28;20116;-77
2021/05/04 02:29:40;;;;;;;3.28;2.03;;;;;;;12.57;40.08;96374.19;5015016;28;20026;-75
2021/05/04 02:32:06;;;;;;;3.88;2.30;;;;;;;12.73;40.15;96380.03;5018745;28;20392;-76
2021/05/04 02:34:31;;;;;;;3.90;2.35;;;;;;;12.56;40.26;96364.81;5030302;28;20436;-76
2021/05/04 02:36:56;;;;;;;3.70;2.40;;;;;;;12.59;40.66;96360.84;5029696;28;20040;-77
2021/05/04 02:39:22;;;;;;;5.13;2.65;;;;;;;12.48;41.08;96347.91;5029910;28;20025;-76
2021/05/04 02:41:47;;;;;;;3.22;2.63;;;;;;;12.64;40.77;96345.91;5046153;28;20025;-77
2021/05/04 02:44:13;;;;;;;4.22;2.20;;;;;;;12.62;40.68;96344.63;5013437;28;20030;-77
2021/05/04 02:46:38;;;;;;;4.90;3.13;;;;;;;12.38;41.05;96340.16;5029897;28;20387;-77
2021/05/04 02:49:03;;;;;;;3.20;2.10;;;;;;;12.55;40.79;96319.63;5029663;28;20485;-76
2021/05/04 02:51:29;;;;;;;5.65;2.88;;;;;;;12.72;40.31;96326.25;5029772;28;20032;-76
2021/05/04 02:53:55;;;;;;;4.97;2.65;;;;;;;12.96;40.08;96321.00;5029743;28;20037;-76
2021/05/04 02:56:21;;;;;;;4.90;2.50;;;;;;;12.92;39.93;96317.41;5030723;28;20029;-76
2021/05/04 02:58:46;;;;;;;2.72;2.25;;;;;;;12.78;40.05;96301.59;5030066;28;20543;-78
2021/05/04 03:01:11;;;;;;;4.40;2.50;;;;;;;12.98;39.98;96299.81;5028846;28;20120;-76
2021/05/04 03:03:37;;;;;;;3.63;2.15;;;;;;;12.76;40.84;96305.56;5028306;28;20040;-75
2021/05/04 03:06:03;;;;;;;3.25;2.40;;;;;;;12.71;40.54;96304.59;5029787;28;20026;-76
2021/05/04 03:08:30;;;;;;;3.90;2.10;;;;;;;12.90;40.07;96301.22;5029779;28;20045;-76
2021/05/04 03:10:55;;;;;;;3.85;1.95;;;;;;;12.93;40.13;96296.19;5045362;28;20044;-77
2021/05/04 03:13:25;;;;;;;5.10;2.60;;;;;;;12.66;40.25;96294.19;5013045;28;20033;-77
2021/05/04 03:15:52;;;;;;;3.13;2.08;;;;;;;12.49;40.43;96294.63;5046550;28;20038;-76
2021/05/04 03:18:18;;;;;;;3.20;2.00;;;;;;;12.98;40.05;96281.53;5045829;28;20033;-77
2021/05/04 03:20:44;;;;;;;3.47;2.60;;;;;;;12.71;39.68;96275.06;5028672;28;20044;-77
2021/05/04 03:23:09;;;;;;;4.15;2.20;;;;;;;12.87;40.04;96275.66;5012489;28;20032;-78
2021/05/04 03:25:34;;;;;;;4.88;2.20;;;;;;;13.06;39.12;96266.00;5045850;28;20077;-76
2021/05/04 03:28:00;;;;;;;4.72;2.38;;;;;;;12.94;39.25;96260.41;5012729;28;20453;-76
2021/05/04 03:30:26;;;;;;;3.20;2.50;;;;;;;12.76;39.38;96269.00;5046485;28;20037;-76
2021/05/04 03:32:52;;;;;;;3.58;2.10;;;;;;;12.91;39.18;96253.91;5030345;28;20041;-76
2021/05/04 03:35:18;;;;;;;4.43;2.20;;;;;;;12.84;39.18;96242.25;5045219;28;20034;-75
2021/05/04 03:37:44;;;;;;;3.85;2.30;;;;;;;12.73;39.00;96246.81;5028672;28;20029;-77
2021/05/04 03:40:12;;;;;;;4.85;2.35;;;;;;;13.20;38.58;96252.22;5028722;28;20111;-77
2021/05/04 03:42:37;;;;;;;3.55;2.38;;;;;;;13.02;38.67;96231.03;5024870;28;20060;-76
2021/05/04 03:45:04;;;;;;;5.18;2.63;;;;;;;13.08;38.16;96239.59;5028465;28;20477;-75
2021/05/04 03:47:30;;;;;;;4.05;2.10;;;;;;;13.22;37.95;96235.19;5044862;28;20033;-75
2021/05/04 03:49:55;;;;;;;3.25;2.17;;;;;;;13.25;37.79;96237.22;5011917;28;20358;-76
2021/05/04 03:52:21;;;;;;;4.22;2.30;;;;;;;13.28;37.50;96217.56;5028433;28;20033;-76
2021/05/04 03:54:47;;;;;;;4.45;2.33;;;;;;;13.30;38.04;96231.94;5028490;28;20025;-75
2021/05/04 03:57:13;;;;;;;3.05;1.83;;;;;;;13.32;37.35;96228.28;5046114;28;20034;-75
2021/05/04 03:59:38;;;;;;;4.38;2.10;;;;;;;13.11;38.34;96218.88;5028511;28;20041;-75
2021/05/04 04:02:04;;;;;;;2.63;1.90;;;;;;;13.20;37.64;96203.31;5044448;28;20028;-76
2021/05/04 04:04:29;;;;;;;3.85;1.75;;;;;;;13.15;37.51;96215.72;5044109;28;20133;-76
2021/05/04 04:06:54;;;;;;;3.25;2.17;;;;;;;13.08;37.68;96206.38;5011807;28;20033;-76
2021/05/04 04:09:20;;;;;;;2.53;1.70;;;;;;;13.00;37.80;96207.00;5028239;28;20512;-76
2021/05/04 04:11:45;;;;;;;3.45;1.98;;;;;;;12.84;38.35;96209.06;5044524;28;20506;-75
2021/05/04 04:14:10;;;;;;;3.75;2.17;;;;;;;12.98;37.71;96208.38;5027832;28;20487;-76
2021/05/04 04:16:36;;;;;;;4.38;2.03;;;;;;;13.36;37.33;96219.56;5044730;28;20520;-76
2021/05/04 04:19:01;;;;;;;3.13;1.52;;;;;;;13.33;37.74;96211.53;5011294;28;20030;-76
2021/05/04 04:21:27;;;;;;;4.05;1.77;;;;;;;13.25;37.99;96200.63;5011112;28;20119;-76
2021/05/04 04:23:52;;;;;;;3.20;1.70;;;;;;;13.18;37.44;96197.63;5023011;28;20234;-76
2021/05/04 04:26:18;;;;;;;4.07;1.95;;;;;;;13.25;37.96;96200.63;5025120;28;20025;-77
2021/05/04 04:28:43;;;;;;;3.22;1.88;;;;;;;13.16;38.34;96199.75;5044735;28;20026;-76
2021/05/04 04:31:08;;;;;;;4.90;1.92;;;;;;;12.99;37.93;96196.84;5033709;28;20437;-76
2021/05/04 04:33:34;;;;;;;3.15;1.83;;;;;;;13.44;37.80;96202.47;5027954;28;20445;-76
2021/05/04 04:35:59;;;;;;;4.38;1.90;;;;;;;13.33;37.72;96190.63;5027630;28;20029;-76
2021/05/04 04:38:27;;;;;;;1.63;1.40;;;;;;;13.30;37.93;96184.09;5011520;28;20499;-77
2021/05/04 04:40:52;;;;;;;2.95;1.70;;;;;;;13.48;37.21;96190.38;5011150;28;20033;-76
2021/05/04 04:43:17;;;;;;;2.45;1.38;;;;;;;13.40;37.73;96197.03;5011105;28;20079;-77
2021/05/04 04:45:43;;;;;;;1.88;1.27;;;;;;;13.44;37.30;96197.25;5011158;28;20031;-76
2021/05/04 04:48:09;;;;;;;2.88;1.90;;;;;;;13.56;37.99;96209.88;5028992;28;20322;-75
2021/05/04 04:50:34;;;;;;;2.85;1.55;;;;;;;13.26;38.14;96193.56;5027402;28;20083;-76
2021/05/04 04:52:59;;;;;;;2.13;1.42;;;;;;;13.31;37.84;96196.09;5027787;28;20536;-76
2021/05/04 04:55:25;;;;;;;2.30;1.60;;;;;;;13.17;38.00;96179.59;5011909;28;20079;-76
2021/05/04 04:57:51;;;;;;;2.40;1.70;;;;;;;13.03;37.90;96188.16;5027742;28;20200;-76
2021/05/04 05:00:16;;;;;;;2.38;1.48;;;;;;;13.19;37.74;96182.69;5026131;28;20075;-76
2021/05/04 05:02:42;;;;;;;3.45;1.60;;;;;;;13.26;37.78;96194.34;5025586;28;20034;-76
2021/05/04 05:05:08;;;;;;;3.38;1.70;;;;;;;13.34;37.54;96190.34;5042722;28;20390;-75
2021/05/04 05:07:33;;;;;;;2.35;1.58;;;;;;;13.53;37.06;96189.53;5026628;28;20032;-76
2021/05/04 05:09:58;;;;;;;2.53;1.45;;;;;;;13.15;37.78;96177.28;5025971;28;20079;-77
2021/05/04 05:12:25;;;;;;;2.70;1.35;;;;;;;13.20;37.59;96179.03;5026215;28;20043;-76
2021/05/04 05:14:52;;;;;;;4.40;1.60;;;;;;;13.34;37.05;96179.88;5027837;28;20026;-76
2021/05/04 05:17:18;;;;;;;4.72;1.30;;;;;;;13.68;36.17;96189.25;5026051;28;20377;-77
2021/05/04 05:19:43;;;;;;;2.55;1.38;;;;;;;13.62;36.81;96191.19;5022645;28;20485;-76
2021/05/04 05:22:09;;;;;;;2.83;1.38;;;;;;;13.81;36.19;96188.50;5026305;28;20281;-77
2021/05/04 05:24:37;;;;;;;1.50;1.15;;;;;;;13.51;36.53;96191.66;5026732;28;20045;-76
2021/05/04 05:27:03;;;;;;;2.95;1.50;;;;;;;13.68;36.80;96179.56;5029455;28;20538;-77
2021/05/04 05:29:34;;;;;;;1.70;1.10;;;;;;;13.58;36.59;96192.81;5047749;28;20045;-75
2021/05/04 05:32:00;;;;;;;2.67;1.00;;;;;;;13.77;36.24;96178.91;5016019;28;20108;-76
2021/05/04 05:34:25;;;;;;;2.55;1.20;;;;;;;13.64;36.47;96178.59;5047991;28;20029;-76
2021/05/04 05:36:51;;;;;;;1.98;0.60;;;;;;;13.84;36.27;96182.69;5030969;28;20037;-76
2021/05/04 05:39:16;;;;;;;2.08;1.05;;;;;;;13.59;36.52;96177.88;5014645;28;20151;-77
2021/05/04 05:41:42;;;;;;;1.45;1.00;;;;;;;13.78;36.80;96181.22;5028244;28;20029;-76
2021/05/04 05:44:08;;;;;;;2.47;1.00;;;;;;;14.04;36.38;96178.16;5048263;28;20269;-76
2021/05/04 05:46:33;;;;;;;1.80;0.88;;;;;;;13.78;36.23;96175.22;5033343;28;20035;-76
2021/05/04 05:48:59;;;;;;;2.35;1.13;;;;;;;13.90;36.04;96162.44;5014293;28;20017;-76
2021/05/04 05:51:25;;;;;;;1.48;0.75;;;;;;;13.88;35.97;96161.97;5047165;28;20033;-77
2021/05/04 05:53:50;;;;;;;1.25;0.90;;;;;;;14.02;35.83;96149.66;5001528;28;20486;-77
2021/05/04 05:56:16;;;;;;;2.50;0.85;;;;;;;13.65;36.32;96163.66;5032728;28;20468;-77
2021/05/04 05:58:41;;;;;;;1.40;1.00;;;;;;;13.76;36.04;96149.34;5047728;28;20049;-76
2021/05/04 06:01:10;;;;;;;0.80;0.80;;;;;;;14.17;36.06;96160.88;5029732;28;20029;-76
2021/05/04 06:03:35;;;;;;;1.20;0.80;;;;;;;14.43;35.55;96161.16;5030463;28;20581;-77
2021/05/04 06:06:01;;;;;;;1.83;0.68;;;;;;;14.15;35.99;96170.88;5030945;28;20124;-76
2021/05/04 06:08:27;;;;;;;1.23;1.00;;;;;;;14.21;35.38;96167.09;5030363;28;20336;-76
2021/05/04 06:10:55;;;;;;;1.88;0.98;;;;;;;13.81;35.81;96159.72;5030282;28;20072;-76
2021/05/04 06:13:21;;;;;;;3.20;1.08;;;;;;;13.87;36.16;96155.16;5014174;28;20117;-76
2021/05/04 06:15:46;;;;;;;2.63;1.58;;;;;;;14.47;35.48;96172.59;5030350;28;20108;-77
2021/05/04 06:18:12;;;;;;;4.60;1.20;;;;;;;14.43;35.40;96182.88;5030704;28;20108;-75
2021/05/04 06:20:38;;;;;;;1.77;0.80;;;;;;;14.26;35.85;96161.75;5029648;28;20484;-76
2021/05/04 06:23:05;;;;;;;1.48;0.73;;;;;;;14.41;35.18;96174.53;5003540;28;20041;-75
2021/05/04 06:25:31;;;;;;;3.17;1.35;;;;;;;14.70;34.86;96176.06;5028720;28;20052;-77
2021/05/04 06:28:00;;;;;;;2.15;1.05;;;;;;;15.37;34.12;96171.94;5029818;28;20017;-76
2021/05/04 06:30:27;;;;;;;1.88;1.05;;;;;;;14.92;34.52;96196.28;5030635;28;20033;-76
2021/05/04 06:32:52;;;;;;;1.90;0.70;;;;;;;15.07;33.78;96182.06;5013465;28;20120;-77
2021/05/04 06:35:19;;;;;;;2.47;0.88;;;;;;;15.04;34.08;96190.50;5013329;28;20113;-76
2021/05/04 06:37:45;;;;;;;4.75;0.90;;;;;;;14.85;34.62;96182.03;5029456;28;20040;-76
2021/05/04 06:40:12;;;;;;;2.47;1.00;;;;;;;15.13;34.00;96174.84;5013098;28;20041;-76
2021/05/04 06:42:37;;;;;;;1.70;0.85;;;;;;;15.28;32.95;96192.84;4993716;28;20037;-76
2021/05/04 06:45:03;;;;;;;1.00;0.85;;;;;;;15.08;34.08;96183.63;5029352;28;20322;-75
2021/05/04 06:47:29;;;;;;;1.42;0.95;;;;;;;15.20;33.99;96190.16;5012958;28;20029;-76
2021/05/04 06:49:54;;;;;;;2.35;0.90;;;;;;;15.23;33.60;96184.34;5029485;28;20369;-76
2021/05/04 06:52:19;;;;;;;1.10;0.90;;;;;;;15.13;33.52;96173.03;5029314;28;20025;-77
2021/05/04 06:54:45;;;;;;;1.40;0.82;;;;;;;15.35;33.67;96192.44;5014700;28;20029;-76
2021/05/04 06:57:11;;;;;;;1.95;0.80;;;;;;;14.83;34.28;96187.59;5030698;28;20030;-76
2021/05/04 06:59:36;;;;;;;2.22;1.00;;;;;;;14.71;35.19;96193.34;5029520;28;20042;-75
2021/05/04 07:02:02;;;;;;;2.80;1.10;;;;;;;14.34;36.77;96194.31;5045658;28;20109;-76
2021/05/04 07:04:27;;;;;;;1.95;1.35;;;;;;;14.38;38.30;96206.56;5030853;28;20061;-76
2021/05/04 07:06:52;;;;;;;1.48;0.98;;;;;;;13.84;39.37;96192.38;5045887;28;20029;-77
2021/05/04 07:09:18;;;;;;;2.25;1.20;;;;;;;13.58;40.25;96198.03;5045788;28;20033;-76
2021/05/04 07:11:44;;;;;;;4.10;1.27;;;;;;;13.22;40.78;96184.75;5006533;28;20124;-75
2021/05/04 07:14:09;;;;;;;1.92;1.00;;;;;;;13.43;42.97;96193.06;5027631;28;20116;-77
2021/05/04 07:16:35;;;;;;;1.45;0.90;;;;;;;13.14;42.33;96203.69;5019425;28;20108;-75
2021/05/04 07:19:01;;;;;;;1.75;1.17;;;;;;;13.33;44.47;96203.69;5017163;28;20032;-77
2021/05/04 07:21:27;;;;;;;5.00;1.63;;;;;;;13.33;42.93;96196.63;5017292;28;20136;-77
2021/05/04 07:23:52;;;;;;;1.73;1.23;;;;;;;12.92;42.69;96205.81;5017066;28;20041;-76
2021/05/04 07:26:18;;;;;;;3.05;1.15;;;;;;;13.25;42.91;96195.41;5017161;28;20037;-76
2021/05/04 07:28:44;;;;;;;2.05;1.15;;;;;;;13.18;44.79;96192.38;4999669;28;20033;-75
2021/05/04 07:31:10;;;;;;;1.88;1.10;;;;;;;13.45;43.69;96198.78;5019482;28;20033;-77
2021/05/04 07:33:35;;;;;;;1.70;1.02;;;;;;;13.44;44.10;96199.84;5001741;28;20041;-76
2021/05/04 07:36:00;;;;;;;1.30;0.95;;;;;;;13.68;42.89;96204.97;5017288;28;20086;-75
2021/05/04 07:38:26;;;;;;;1.17;1.00;;;;;;;13.80;42.66;96194.03;5017475;28;20049;-77
2021/05/04 07:40:52;;;;;;;2.10;1.23;;;;;;;13.63;43.16;96203.19;5034078;28;20044;-76
2021/05/04 07:43:17;;;;;;;2.70;1.05;;;;;;;13.51;44.40;96202.88;5015194;28;20048;-76
2021/05/04 07:45:43;;;;;;;2.33;1.33;;;;;;;13.75;45.17;96197.50;5017531;28;20345;-76
2021/05/04 07:48:10;;;;;;;1.25;1.00;;;;;;;13.87;43.93;96191.81;5017104;28;20029;-76
2021/05/04 07:50:37;;;;;;;2.28;1.20;;;;;;;12.79;46.30;96185.63;5016466;28;20038;-77
2021/05/04 07:53:02;;;;;;;1.33;1.08;;;;;;;13.17;46.09;96211.72;5017361;28;20037;-75
2021/05/04 07:55:28;;;;;;;2.03;1.20;;;;;;;13.09;47.08;96201.91;5016933;28;20041;-76
2021/05/04 07:57:54;;;;;;;1.58;0.90;;;;;;;13.11;46.31;96203.19;5032644;28;20590;-76
2021/05/04 08:00:19;;;;;;;1.55;0.98;;;;;;;12.80;45.57;96205.47;5016353;28;20552;-75
2021/05/04 08:02:44;;;;;;;2.78;1.00;;;;;;;12.21;47.21;96204.09;5000519;28;20029;-77
2021/05/04 08:05:10;;;;;;;1.45;1.25;;;;;;;12.67;47.44;96214.00;5000413;28;20048;-76
2021/05/04 08:07:36;;;;;;;2.08;1.20;;;;;;;12.65;47.30;96208.28;4999047;28;20034;-76
2021/05/04 08:10:03;;;;;;;1.98;1.30;;;;;;;12.66;49.22;96200.19;5016105;28;20119;-76
2021/05/04 08:12:28;;;;;;;2.03;1.15;;;;;;;12.69;49.85;96211.88;5033595;28;20448;-76
2021/05/04 08:14:54;;;;;;;1.42;1.30;;;;;;;12.85;50.59;96200.19;5017116;28;20026;-77
2021/05/04 08:17:22;;;;;;;2.38;1.30;;;;;;;12.59;51.27;96212.00;5032506;28;20091;-76
2021/05/04 08:19:47;;;;;;;1.30;1.15;;;;;;;12.70;49.96;96205.59;5031824;28;20029;-75
2021/05/04 08:22:14;;;;;;;1.92;1.20;;;;;;;12.50;50.81;96219.69;5016762;28;20036;-76
2021/05/04 08:24:39;;;;;;;2.25;1.42;;;;;;;12.36;51.57;96212.53;5016962;28;20048;-76
2021/05/04 08:27:05;;;;;;;2.20;1.73;;;;;;;12.12;53.03;96181.22;5000613;28;20033;-77
2021/05/04 08:29:31;;;;;;;1.60;1.35;;;;;;;12.40;52.59;96204.91;5016184;28;20040;-75
2021/05/04 08:31:57;;;;;;;1.90;1.60;;;;;;;12.04;53.59;96202.72;5001438;28;20029;-77
2021/05/04 08:34:22;;;;;;;1.63;1.40;;;;;;;12.44;53.00;96198.09;4999178;28;20050;-76
2021/05/04 08:36:48;;;;;;;2.92;1.52;;;;;;;12.05;53.71;96183.41;5031599;28;20394;-77
2021/05/04 08:39:14;;;;;;;1.33;1.20;;;;;;;12.30;52.43;96207.66;5015628;28;20041;-75
2021/05/04 08:41:41;;;;;;;3.60;1.73;;;;;;;11.87;55.22;96189.28;5032851;28;20044;-76
2021/05/04 08:44:06;;;;;;;2.03;1.52;;;;;;;11.74;55.98;96198.56;5032224;28;20037;-78
2021/05/04 08:46:35;;;;;;;1.65;1.48;;;;;;;11.67;56.36;96203.31;5015150;28;20401;-76
2021/05/04 08:49:04;;;;;;;4.10;2.33;;;;;;;11.53;57.82;96226.63;5016849;28;20040;-76
2021/05/04 08:51:31;;;;;;;3.10;2.08;;;;;;;11.54;59.11;96202.91;5016210;28;20033;-76
2021/05/04 08:53:56;;;;;;;2.72;1.80;;;;;;;11.81;59.90;96212.81;4999613;28;20285;-76
2021/05/04 08:56:21;;;;;;;3.88;1.90;;;;;;;11.81;59.57;96210.22;4997882;28;20619;-76
2021/05/04 08:58:47;;;;;;;3.03;2.22;;;;;;;11.89;60.34;96192.41;4986148;28;21307;-77
2021/05/04 09:01:13;;;;;;;3.03;2.40;;;;;;;11.84;59.83;96213.31;5014463;28;20508;-76
2021/05/04 09:08:50;;;;;;;3.30;2.65;;;;;;;11.85;60.98;96226.09;5031563;28;20148;-76
2021/05/04 09:16:43;;;;;;;3.03;2.53;;;;;;;11.98;60.85;96235.13;5016197;28;20130;-77
2021/05/04 09:19:45;;;;;;;3.83;2.60;;;;;;;11.92;60.96;96220.56;5015128;28;20124;-76
2021/05/04 09:22:00;;;;;;;3.55;2.67;;;;;;;11.79;61.77;96229.81;5018235;28;20107;-76
2021/05/04 09:24:33;;;;;;;3.65;2.80;;;;;;;11.93;61.03;96232.56;5016558;28;20030;-77
2021/05/04 09:26:59;;;;;;;5.20;3.13;;;;;;;11.69;61.96;96222.84;5018801;28;20476;-77
2021/05/04 09:29:32;;;;;;;3.92;3.08;;;;;;;11.67;62.24;96213.72;5015214;28;20144;-76
2021/05/04 09:32:29;;;;;;;3.97;3.22;;;;;;;11.51;62.29;96215.69;5014764;28;20037;-76
2021/05/04 09:34:57;;;;;;;4.38;2.50;;;;;;;11.50;62.04;96211.53;5000318;28;20663;-77
2021/05/04 09:37:36;;;;;;;4.43;2.83;;;;;;;11.59;62.78;96212.50;5015024;28;20574;-76
2021/05/04 09:40:24;;;;;;;2.95;2.42;;;;;;;10.97;63.79;96205.16;5002899;28;20183;-79
2021/05/04 09:43:12;;;;;;;3.75;3.35;;;;;;;11.19;64.38;96202.13;5016509;28;20497;-76
2021/05/04 09:45:51;;;;;;;4.80;3.30;;;;;;;11.17;64.59;96195.63;5011989;28;20388;-77
2021/05/04 09:48:32;;;;;;;3.20;2.53;;;;;;;10.95;64.30;96215.06;4982742;28;20497;-77
2021/05/04 09:51:04;;;;;;;3.42;2.47;;;;;;;11.12;63.79;96199.06;5017199;28;20072;-77
2021/05/04 09:53:45;;;;;;;5.10;3.50;;;;;;;11.18;63.44;96199.78;5015961;28;20144;-78
2021/05/04 09:56:13;;;;;;;3.17;2.72;;;;;;;11.37;63.94;96200.69;5000100;28;20022;-78
2021/05/04 09:58:42;;;;;;;4.03;2.58;;;;;;;11.30;63.65;96209.88;5031073;28;20037;-77
2021/05/04 10:01:10;;;;;;;3.53;2.67;;;;;;;10.86;64.17;96206.25;5029919;28;20104;-77
2021/05/04 10:03:37;;;;;;;4.22;3.28;;;;;;;11.14;64.99;96214.41;5016711;28;20258;-79
2021/05/04 10:06:04;;;;;;;4.18;3.40;;;;;;;11.53;63.78;96190.94;5014904;28;20026;-77
2021/05/04 10:08:32;;;;;;;4.20;2.90;;;;;;;11.37;63.93;96213.72;5015037;28;20389;-79
2021/05/04 10:11:00;;;;;;;5.78;3.17;;;;;;;11.65;63.59;96208.78;5013715;28;20030;-77
2021/05/04 10:13:27;;;;;;;3.42;3.08;;;;;;;11.50;63.79;96211.53;5016587;28;20045;-77
2021/05/04 10:15:52;;;;;;;5.18;2.88;;;;;;;11.85;62.71;96209.66;4986804;28;21064;-78
2021/05/04 10:18:18;;;;;;;3.45;2.47;;;;;;;11.74;62.89;96209.00;5017797;28;20389;-78
2021/05/04 10:20:44;;;;;;;3.60;2.65;;;;;;;11.72;62.97;96206.66;5019795;28;20559;-78
2021/05/04 10:23:12;;;;;;;3.65;2.92;;;;;;;11.59;63.07;96207.28;5036354;28;20057;-78
2021/05/04 10:25:39;;;;;;;3.28;2.65;;;;;;;11.71;61.76;96196.50;5018859;28;20029;-77
2021/05/04 10:28:06;;;;;;;4.97;2.58;;;;;;;11.66;62.76;96206.97;5018758;28;20065;-78
2021/05/04 10:30:33;;;;;;;4.05;2.35;;;;;;;11.92;62.13;96216.13;5018366;28;20029;-76
2021/05/04 10:33:11;;;;;;;2.92;2.08;;;;;;;11.89;61.09;96206.25;5026867;28;20064;-77
2021/05/04 10:35:45;;;;;;;3.17;2.20;;;;;;;11.58;61.51;96210.94;5012081;28;20037;-79
2021/05/04 10:38:52;;;;;;;3.03;1.98;;;;;;;11.28;61.82;96207.53;5029286;28;20045;-78
2021/05/04 10:41:19;;;;;;;2.80;2.08;;;;;;;11.85;61.45;96205.22;5013787;28;20026;-78
2021/05/04 10:43:44;;;;;;;2.95;2.08;;;;;;;11.59;62.16;96207.28;5028662;28;20544;-77
2021/05/04 10:46:34;;;;;;;2.58;1.80;;;;;;;10.84;61.89;96197.94;5010545;28;20038;-80
2021/05/04 10:48:59;;;;;;;3.50;2.00;;;;;;;11.66;61.92;96188.72;4993910;28;20152;-79
2021/05/04 10:51:47;;;;;;;3.17;1.80;;;;;;;11.58;61.02;96216.16;5026665;28;20039;-78
2021/05/04 10:54:14;;;;;;;2.58;1.60;;;;;;;11.84;60.66;96208.09;5027955;28;20032;-78
2021/05/04 10:56:42;;;;;;;2.33;1.88;;;;;;;11.67;60.66;96216.34;4994841;28;20052;-79
2021/05/04 10:59:11;;;;;;;2.05;1.85;;;;;;;11.59;60.94;96225.53;5007050;28;20044;-78
2021/05/04 11:01:36;;;;;;;2.10;1.90;;;;;;;11.94;60.67;96208.81;5028179;28;20048;-77
2021/05/04 11:04:04;;;;;;;2.25;1.67;;;;;;;11.77;59.71;96230.09;5030976;28;20532;-77
2021/05/04 11:06:32;;;;;;;2.20;1.73;;;;;;;11.76;59.68;96238.94;5044197;28;20030;-79
2021/05/04 11:08:58;;;;;;;2.50;1.92;;;;;;;12.03;60.60;96222.03;5011192;28;20420;-78
2021/05/04 11:11:39;;;;;;;4.95;2.10;;;;;;;11.92;59.49;96233.63;5027741;28;20036;-77
2021/05/04 11:14:19;;;;;;;2.38;1.88;;;;;;;11.60;60.49;96221.88;5028407;28;20057;-78
2021/05/04 11:16:56;;;;;;;2.25;1.80;;;;;;;11.86;59.63;96224.25;5027234;28;20060;-77
2021/05/04 11:19:34;;;;;;;2.67;1.83;;;;;;;11.78;60.38;96220.41;5045315;28;20037;-77
2021/05/04 11:22:02;;;;;;;2.40;1.42;;;;;;;12.09;58.94;96214.94;5043232;28;20067;-78
2021/05/04 11:24:34;;;;;;;2.42;1.70;;;;;;;11.74;60.97;96201.16;5027925;28;20120;-76
2021/05/04 11:27:09;;;;;;;1.15;1.05;;;;;;;11.80;60.40;96189.63;5028225;28;20037;-77
2021/05/04 11:29:35;;;;;;;2.08;1.70;;;;;;;12.05;60.50;96209.50;5027335;28;20322;-77
2021/05/04 11:32:27;;;;;;;2.50;1.67;;;;;;;11.74;60.93;96220.19;5011144;28;20041;-76
2021/05/04 11:34:57;;;;;;;1.83;1.30;;;;;;;11.66;62.11;96207.75;5027171;28;20037;-77
2021/05/04 11:37:23;;;;;;;3.33;1.58;;;;;;;11.98;61.38;96209.06;5009495;28;20107;-78
2021/05/04 11:39:55;;;;;;;2.88;1.40;;;;;;;12.32;59.57;96210.75;5027691;28;20696;-76
2021/05/04 11:42:35;;;;;;;3.08;1.48;;;;;;;11.87;61.63;96208.31;5027559;28;20026;-76
2021/05/04 11:45:06;;;;;;;3.15;1.77;;;;;;;12.24;60.20;96216.59;5025552;28;20041;-76